Time;durP1;ratioP1;P1;durP2;ratioP2;P2;SDS_P1;SDS_P2;PMS_P1;PMS_P2;Temp;Humidity;BMP_temperature;BMP_pressure;BME280_temperature;BME280_humidity;BME280_pressure;Samples;Min_cycle;Max_cycle;Signal;HPM_P1;HPM_P2
2021/10/03 00:02:02;;;;;;;7.53;3.22;;;;;;;14.78;88.84;100006.78;4989967;28;20033;-79
2021/10/03 00:04:31;;;;;;;8.75;3.30;;;;;;;14.94;88.66;100008.31;4973772;28;20037;-80
2021/10/03 00:06:59;;;;;;;6.75;3.38;;;;;;;14.94;88.97;100003.03;4974155;28;20038;-78
2021/10/03 00:09:25;;;;;;;7.05;2.95;;;;;;;15.01;90.05;100008.34;4973984;28;20030;-77
2021/10/03 00:11:52;;;;;;;11.93;4.22;;;;;;;15.05;90.04;99993.75;4957403;28;20432;-78
2021/10/03 00:14:20;;;;;;;4.95;3.70;;;;;;;15.07;88.59;99983.78;4940907;28;20040;-79
2021/10/03 00:16:48;;;;;;;6.97;3.17;;;;;;;15.14;89.68;99967.00;4942637;28;20046;-82
2021/10/03 00:19:15;;;;;;;6.10;3.30;;;;;;;15.15;88.63;99959.88;4973402;28;20026;-79
2021/10/03 00:21:42;;;;;;;5.22;3.50;;;;;;;15.15;89.04;99954.59;4941543;28;20038;-81
2021/10/03 00:24:08;;;;;;;6.63;3.43;;;;;;;15.23;87.99;99945.69;4922048;28;1029870;-81
2021/10/03 00:26:34;;;;;;;4.13;3.30;;;;;;;15.32;88.34;99953.25;4958419;28;20616;-79
2021/10/03 00:29:01;;;;;;;6.18;3.28;;;;;;;15.58;86.52;99939.31;4942478;28;20085;-80
2021/10/03 00:31:26;;;;;;;7.15;3.45;;;;;;;15.65;86.48;99939.34;4974002;28;20066;-78
2021/10/03 00:33:52;;;;;;;7.47;3.22;;;;;;;15.77;85.53;99952.84;4942681;28;20120;-80
2021/10/03 00:36:18;;;;;;;7.28;3.83;;;;;;;15.81;85.74;99951.41;4974286;28;20485;-82
2021/10/03 00:38:44;;;;;;;6.63;3.63;;;;;;;15.87;85.44;99950.59;4973809;28;20035;-78
2021/10/03 00:41:11;;;;;;;6.55;3.85;;;;;;;15.90;84.94;99946.75;4951630;28;20030;-80
2021/10/03 00:43:37;;;;;;;7.65;3.60;;;;;;;16.03;84.60;99944.13;4971964;28;20084;-81
2021/10/03 00:46:02;;;;;;;6.05;3.80;;;;;;;16.09;84.33;99950.44;4990087;28;20109;-81
2021/10/03 00:48:28;;;;;;;6.35;3.75;;;;;;;16.05;85.13;99931.53;4974696;28;20529;-79
2021/10/03 00:50:53;;;;;;;5.20;3.55;;;;;;;16.15;84.68;99939.84;4957739;28;20054;-80
2021/10/03 00:53:19;;;;;;;5.75;3.65;;;;;;;16.27;84.14;99929.47;4974045;28;20030;-79
2021/10/03 00:55:44;;;;;;;5.28;3.90;;;;;;;16.29;83.77;99932.75;4972420;28;20460;-80
2021/10/03 00:58:11;;;;;;;5.25;3.55;;;;;;;16.50;82.95;99918.50;4957889;28;20034;-78
2021/10/03 01:00:39;;;;;;;9.90;4.00;;;;;;;16.55;81.94;99908.06;4964038;28;20042;-79
2021/10/03 01:03:06;;;;;;;6.70;3.53;;;;;;;16.57;82.23;99910.53;4959789;28;20037;-82
2021/10/03 01:05:32;;;;;;;6.38;3.95;;;;;;;16.57;82.48;99901.78;4961676;28;20246;-80
2021/10/03 01:07:58;;;;;;;7.20;3.88;;;;;;;16.55;82.34;99908.06;4945649;28;20058;-80
2021/10/03 01:10:26;;;;;;;5.90;3.75;;;;;;;16.48;83.16;99902.00;4977289;28;20804;-78
2021/10/03 01:13:05;;;;;;;9.00;3.85;;;;;;;16.56;82.88;99922.16;4977516;28;20034;-79
2021/10/03 01:15:34;;;;;;;7.72;4.10;;;;;;;16.59;83.00;99918.28;4961437;28;20046;-80
2021/10/03 01:17:59;;;;;;;5.75;3.67;;;;;;;16.61;83.19;99901.16;4977509;28;20030;-80
2021/10/03 01:20:25;;;;;;;4.72;3.58;;;;;;;16.59;83.87;99908.47;4961320;28;20030;-80
2021/10/03 01:22:51;;;;;;;7.00;3.53;;;;;;;16.61;83.69;99922.31;4945708;28;20038;-79
2021/10/03 01:25:18;;;;;;;8.00;4.05;;;;;;;16.55;84.37;99881.59;4977426;28;20117;-81
2021/10/03 01:27:43;;;;;;;4.90;3.83;;;;;;;16.59;83.79;99897.09;4961709;28;20040;-81
2021/10/03 01:30:15;;;;;;;6.95;3.75;;;;;;;16.61;83.65;99887.09;4961269;28;20120;-79
2021/10/03 01:32:41;;;;;;;7.03;3.70;;;;;;;16.57;83.58;99885.91;4977044;28;20137;-79
2021/10/03 01:35:08;;;;;;;5.80;3.88;;;;;;;16.62;82.93;99889.56;4978458;28;20767;-81
2021/10/03 01:37:35;;;;;;;5.78;3.85;;;;;;;16.68;82.81;99875.47;4945807;28;20100;-80
2021/10/03 01:40:07;;;;;;;5.22;3.97;;;;;;;16.72;81.84;99878.53;4962429;28;20038;-78
2021/10/03 01:42:33;;;;;;;5.53;3.80;;;;;;;16.82;82.21;99875.44;4988173;28;20054;-78
2021/10/03 01:44:59;;;;;;;4.82;3.78;;;;;;;16.83;82.10;99877.91;4970501;28;20150;-81
2021/10/03 01:47:25;;;;;;;6.80;3.88;;;;;;;17.04;79.83;99871.53;4976701;28;20572;-78
2021/10/03 01:49:51;;;;;;;4.40;3.60;;;;;;;17.13;79.48;99872.09;4975935;28;20129;-80
2021/10/03 01:52:17;;;;;;;5.22;3.40;;;;;;;17.06;80.60;99869.47;4975806;28;20038;-80
2021/10/03 01:54:43;;;;;;;4.60;3.25;;;;;;;17.19;79.58;99873.91;4975378;28;20042;-79
2021/10/03 01:57:09;;;;;;;9.10;3.78;;;;;;;17.23;79.69;99861.03;4959858;28;20041;-80
2021/10/03 01:59:35;;;;;;;4.13;3.47;;;;;;;17.22;80.46;99854.13;4976779;28;20038;-81
2021/10/03 02:02:00;;;;;;;10.05;4.38;;;;;;;17.28;79.83;99866.53;4960012;28;20100;-81
2021/10/03 02:04:27;;;;;;;6.03;3.63;;;;;;;17.35;79.48;99858.53;4968081;28;20436;-77
2021/10/03 02:06:55;;;;;;;5.40;3.53;;;;;;;17.28;79.26;99859.38;4992199;28;20094;-79
2021/10/03 02:09:24;;;;;;;4.25;3.60;;;;;;;17.31;80.12;99858.16;4992196;28;20505;-79
2021/10/03 02:11:56;;;;;;;5.65;3.58;;;;;;;17.38;79.56;99864.22;4975983;28;20060;-82
2021/10/03 02:14:30;;;;;;;7.68;3.70;;;;;;;17.47;79.08;99856.84;4990964;28;20039;-82
2021/10/03 02:16:57;;;;;;;5.65;3.72;;;;;;;17.46;79.31;99845.44;4959226;28;20034;-80
2021/10/03 02:19:25;;;;;;;4.90;3.40;;;;;;;17.43;79.68;99840.56;4975288;28;20130;-80
2021/10/03 02:21:51;;;;;;;5.20;3.50;;;;;;;17.39;79.66;99834.06;4943265;28;20049;-84
2021/10/03 02:24:17;;;;;;;4.60;3.47;;;;;;;17.35;80.47;99830.22;4992152;28;20034;-79
2021/10/03 02:26:43;;;;;;;5.38;3.78;;;;;;;17.34;80.20;99820.63;4959970;28;20049;-80
2021/10/03 02:29:09;;;;;;;7.60;3.67;;;;;;;17.40;79.85;99827.72;4959893;28;20535;-79
2021/10/03 02:31:35;;;;;;;5.55;3.67;;;;;;;17.40;80.29;99825.06;4959869;28;20501;-79
2021/10/03 02:34:01;;;;;;;6.07;3.55;;;;;;;17.39;80.59;99830.59;4960110;28;20026;-79
2021/10/03 02:36:26;;;;;;;7.45;3.60;;;;;;;17.37;80.12;99822.84;4975625;28;20404;-79
2021/10/03 02:38:53;;;;;;;8.35;3.63;;;;;;;17.34;80.58;99825.91;4975996;28;20038;-80
2021/10/03 02:41:19;;;;;;;4.43;3.35;;;;;;;17.36;80.06;99826.53;4959450;28;20046;-78
2021/10/03 02:43:50;;;;;;;6.63;3.50;;;;;;;17.36;79.64;99829.16;4944242;28;20062;-80
2021/10/03 02:46:17;;;;;;;4.80;3.47;;;;;;;17.35;80.35;99826.72;4959191;28;20033;-80
2021/10/03 02:48:49;;;;;;;4.68;3.35;;;;;;;17.41;80.20;99818.75;4983828;28;20042;-79
2021/10/03 02:51:16;;;;;;;5.83;3.40;;;;;;;17.48;79.61;99829.31;4975439;28;20056;-79
2021/10/03 02:53:41;;;;;;;5.32;3.55;;;;;;;17.43;79.83;99819.34;4975913;28;20112;-80
2021/10/03 02:56:07;;;;;;;5.75;3.55;;;;;;;17.43;80.33;99827.28;4975846;28;20448;-80
2021/10/03 02:58:33;;;;;;;5.95;3.40;;;;;;;17.40;80.09;99845.47;4975404;28;20049;-81
2021/10/03 03:00:58;;;;;;;7.10;3.65;;;;;;;17.57;79.17;99829.84;4975591;28;20030;-80
2021/10/03 03:03:24;;;;;;;5.57;3.30;;;;;;;17.56;79.55;99837.00;4975513;28;20092;-80
2021/10/03 03:05:49;;;;;;;3.75;3.35;;;;;;;17.56;80.12;99834.34;4958986;28;20031;-80
2021/10/03 03:08:15;;;;;;;4.35;3.40;;;;;;;17.47;80.37;99836.44;4975938;28;20061;-82
2021/10/03 03:10:41;;;;;;;4.57;3.28;;;;;;;17.52;81.34;99841.13;4975435;28;20038;-80
2021/10/03 03:13:06;;;;;;;4.57;3.60;;;;;;;17.45;81.51;99833.19;4959889;28;20049;-81
2021/10/03 03:15:32;;;;;;;7.68;4.00;;;;;;;17.45;81.39;99830.53;4975377;28;20455;-80
2021/10/03 03:17:57;;;;;;;5.38;3.58;;;;;;;17.41;82.77;99839.94;4975635;28;20480;-79
2021/10/03 03:20:23;;;;;;;4.93;3.05;;;;;;;17.43;82.23;99835.25;4975397;28;20458;-79
2021/10/03 03:22:49;;;;;;;3.53;3.15;;;;;;;17.40;82.52;99837.50;4959711;28;20064;-82
2021/10/03 03:25:14;;;;;;;8.15;3.47;;;;;;;17.41;83.12;99837.31;4975261;28;20085;-81
2021/10/03 03:27:40;;;;;;;6.95;3.10;;;;;;;17.35;83.91;99839.97;4959769;28;20061;-80
2021/10/03 03:30:08;;;;;;;5.45;3.20;;;;;;;17.37;83.61;99832.66;4975317;28;20045;-81
2021/10/03 03:32:36;;;;;;;4.30;3.28;;;;;;;17.31;84.23;99829.00;4959890;28;20034;-80
2021/10/03 03:35:03;;;;;;;7.63;3.63;;;;;;;17.29;84.14;99831.03;4975144;28;20040;-80
2021/10/03 03:37:28;;;;;;;5.57;3.75;;;;;;;17.21;84.66;99824.16;4975560;28;20038;-81
2021/10/03 03:39:53;;;;;;;5.10;3.10;;;;;;;17.15;85.67;99829.50;4975849;28;20189;-81
2021/10/03 03:42:19;;;;;;;4.63;3.03;;;;;;;17.12;86.34;99820.97;4958905;28;20034;-81
2021/10/03 03:44:44;;;;;;;5.32;3.05;;;;;;;17.14;85.40;99826.06;4990025;28;20035;-81
2021/10/03 03:47:10;;;;;;;4.72;3.33;;;;;;;17.15;85.91;99830.31;4949351;28;20044;-79
2021/10/03 03:49:35;;;;;;;6.13;3.22;;;;;;;17.04;86.32;99833.63;4975151;28;20046;-82
2021/10/03 03:52:01;;;;;;;5.40;3.33;;;;;;;17.07;86.71;99836.66;4959217;28;20049;-82
2021/10/03 03:54:27;;;;;;;5.00;3.63;;;;;;;16.98;86.82;99835.28;4975052;28;20129;-80
2021/10/03 03:56:52;;;;;;;5.85;3.15;;;;;;;16.99;87.23;99836.09;4958943;28;20045;-79
2021/10/03 03:59:17;;;;;;;6.57;3.50;;;;;;;17.00;86.81;99832.44;4974747;28;20042;-79
2021/10/03 04:01:43;;;;;;;7.68;3.60;;;;;;;16.99;85.24;99831.63;4974794;28;20034;-83
2021/10/03 04:04:10;;;;;;;6.78;3.63;;;;;;;16.91;87.62;99843.28;4975252;28;20109;-83
2021/10/03 04:06:35;;;;;;;5.05;3.85;;;;;;;16.95;86.37;99841.00;4959059;28;20060;-79
2021/10/03 04:09:01;;;;;;;5.63;4.00;;;;;;;16.96;85.34;99839.97;4959213;28;20038;-80
2021/10/03 04:11:26;;;;;;;7.28;4.18;;;;;;;16.99;85.53;99833.44;4958542;28;20469;-81
2021/10/03 04:13:52;;;;;;;5.32;3.28;;;;;;;17.02;84.88;99828.53;4974826;28;20042;-80
2021/10/03 04:16:17;;;;;;;5.38;3.80;;;;;;;17.05;83.50;99822.81;4990393;28;20027;-80
2021/10/03 04:18:42;;;;;;;9.52;3.72;;;;;;;17.05;84.20;99825.47;4939024;28;20058;-80
2021/10/03 04:21:08;;;;;;;7.53;3.90;;;;;;;16.99;84.56;99833.44;4971441;28;20119;-81
2021/10/03 04:23:33;;;;;;;6.20;3.92;;;;;;;16.92;85.29;99831.63;4939826;28;20393;-82
2021/10/03 04:25:59;;;;;;;6.93;3.53;;;;;;;16.95;84.98;99838.34;4970986;28;20107;-81
2021/10/03 04:28:25;;;;;;;5.13;3.53;;;;;;;16.98;84.02;99840.56;4942717;28;20089;-81
2021/10/03 04:30:52;;;;;;;6.07;3.30;;;;;;;17.02;83.63;99844.44;4958718;28;20053;-79
2021/10/03 04:33:18;;;;;;;7.32;3.70;;;;;;;17.02;83.79;99852.38;4958843;28;20057;-79
2021/10/03 04:35:43;;;;;;;5.60;3.42;;;;;;;17.04;83.61;99847.69;4974496;28;20062;-81
2021/10/03 04:38:09;;;;;;;7.45;3.80;;;;;;;17.10;82.64;99849.50;4976083;28;20040;-80
2021/10/03 04:40:34;;;;;;;3.97;3.30;;;;;;;17.13;83.06;99838.47;4978166;28;20034;-82
2021/10/03 04:43:00;;;;;;;6.32;3.63;;;;;;;17.19;82.41;99838.66;4978911;28;20044;-81
2021/10/03 04:45:25;;;;;;;5.40;3.58;;;;;;;17.18;82.04;99845.78;4962835;28;20031;-81
2021/10/03 04:47:51;;;;;;;6.95;3.40;;;;;;;17.12;82.23;99852.75;4986195;28;20128;-79
2021/10/03 04:50:17;;;;;;;5.75;3.30;;;;;;;17.13;82.37;99859.66;4961813;28;20034;-81
2021/10/03 04:52:43;;;;;;;4.65;3.33;;;;;;;17.22;81.91;99848.84;4960707;28;20038;-80
2021/10/03 04:55:10;;;;;;;8.00;3.50;;;;;;;17.16;83.19;99847.84;4962450;28;20065;-79
2021/10/03 04:57:36;;;;;;;6.60;3.65;;;;;;;17.12;81.98;99842.16;4961622;28;20034;-79
2021/10/03 05:00:07;;;;;;;7.40;3.50;;;;;;;17.17;81.26;99838.06;4963868;28;20035;-81
2021/10/03 05:02:35;;;;;;;7.72;3.50;;;;;;;17.26;81.30;99842.09;4978457;28;20093;-81
2021/10/03 05:05:00;;;;;;;4.78;3.38;;;;;;;17.30;80.33;99841.44;4992220;28;20408;-80
2021/10/03 05:07:25;;;;;;;4.22;3.33;;;;;;;17.34;80.61;99836.53;4996029;28;20030;-82
2021/10/03 05:09:51;;;;;;;5.85;3.78;;;;;;;17.34;80.93;99838.38;4964282;28;20124;-80
2021/10/03 05:12:17;;;;;;;7.20;3.20;;;;;;;17.30;81.16;99833.47;4997249;28;20513;-82
2021/10/03 05:14:43;;;;;;;6.32;3.17;;;;;;;17.36;80.34;99839.78;4979387;28;20038;-81
2021/10/03 05:17:08;;;;;;;3.28;2.97;;;;;;;17.34;80.60;99838.38;4980837;28;20764;-83
2021/10/03 05:19:33;;;;;;;5.30;3.33;;;;;;;17.28;80.98;99840.84;4971373;28;20131;-80
2021/10/03 05:21:59;;;;;;;9.27;3.40;;;;;;;17.35;80.00;99839.97;4984474;28;20042;-79
2021/10/03 05:24:25;;;;;;;4.63;3.20;;;;;;;17.29;81.90;99834.53;4961630;28;20088;-78
2021/10/03 05:26:51;;;;;;;4.80;3.38;;;;;;;17.20;81.85;99838.44;4961278;28;20026;-79
2021/10/03 05:29:16;;;;;;;11.63;3.35;;;;;;;17.23;82.02;99847.78;4945395;28;20555;-82
2021/10/03 05:31:41;;;;;;;3.38;3.03;;;;;;;17.26;82.12;99834.94;4961208;28;20276;-82
2021/10/03 05:34:07;;;;;;;4.68;3.25;;;;;;;17.24;82.71;99839.63;4945725;28;20488;-82
2021/10/03 05:36:33;;;;;;;5.40;3.30;;;;;;;17.23;82.45;99842.50;4945000;28;20101;-82
2021/10/03 05:39:00;;;;;;;5.28;3.95;;;;;;;17.22;82.15;99832.94;4976917;28;20042;-81
2021/10/03 05:41:27;;;;;;;9.02;3.90;;;;;;;17.22;83.26;99836.41;4960472;28;20042;-84
2021/10/03 05:43:52;;;;;;;3.75;3.28;;;;;;;17.21;82.88;99842.69;4968947;28;20038;-79
2021/10/03 05:46:18;;;;;;;5.63;3.35;;;;;;;17.25;81.81;99835.97;4954862;28;20061;-80
2021/10/03 05:48:43;;;;;;;3.92;3.53;;;;;;;17.26;82.18;99840.25;4961126;28;20089;-79
2021/10/03 05:51:09;;;;;;;4.85;3.70;;;;;;;17.21;81.91;99826.81;4976662;28;20460;-79
2021/10/03 05:53:35;;;;;;;5.18;3.30;;;;;;;17.25;81.61;99835.97;4977251;28;20516;-80
2021/10/03 05:56:01;;;;;;;6.88;3.30;;;;;;;17.25;81.92;99837.78;4977129;28;20065;-78
2021/10/03 05:58:27;;;;;;;4.63;3.45;;;;;;;17.42;80.50;99840.75;4976611;28;20130;-78
2021/10/03 06:00:52;;;;;;;3.88;3.25;;;;;;;17.34;81.91;99838.38;4961101;28;20141;-81
2021/10/03 06:03:18;;;;;;;4.28;3.28;;;;;;;17.23;83.40;99837.19;4960629;28;20042;-79
2021/10/03 06:05:43;;;;;;;6.10;3.75;;;;;;;17.23;82.25;99831.91;4976001;28;20445;-80
2021/10/03 06:08:10;;;;;;;7.13;3.55;;;;;;;17.18;82.49;99834.38;4960338;28;20046;-81
2021/10/03 06:10:37;;;;;;;4.38;3.30;;;;;;;17.23;82.32;99835.34;4973673;28;20035;-78
2021/10/03 06:13:04;;;;;;;5.70;3.30;;;;;;;17.22;82.87;99840.88;4968351;28;20030;-82
2021/10/03 06:15:31;;;;;;;4.90;3.25;;;;;;;17.19;83.48;99843.94;4975207;28;20026;-79
2021/10/03 06:17:57;;;;;;;5.47;3.38;;;;;;;17.19;83.83;99836.81;4976176;28;20022;-81
2021/10/03 06:20:22;;;;;;;6.78;3.55;;;;;;;17.18;83.37;99839.66;4944258;28;20392;-80
2021/10/03 06:22:48;;;;;;;4.40;3.20;;;;;;;17.20;82.72;99845.59;4960152;28;20053;-82
2021/10/03 06:25:14;;;;;;;4.43;3.20;;;;;;;17.28;82.00;99847.97;4976689;28;20030;-82
2021/10/03 06:27:40;;;;;;;5.15;3.40;;;;;;;17.28;82.45;99843.50;4959788;28;20031;-80
2021/10/03 06:30:06;;;;;;;4.07;3.28;;;;;;;17.34;82.46;99847.13;4975916;28;20044;-80
2021/10/03 06:32:32;;;;;;;4.25;3.25;;;;;;;17.44;81.81;99849.31;4976462;28;20042;-79
2021/10/03 06:34:58;;;;;;;4.82;3.65;;;;;;;17.48;80.77;99848.69;4976170;28;20057;-79
2021/10/03 06:37:23;;;;;;;7.70;3.30;;;;;;;17.56;80.76;99858.22;4975687;28;20074;-79
2021/10/03 06:39:49;;;;;;;4.82;3.38;;;;;;;17.53;81.99;99858.63;4943954;28;20042;-79
2021/10/03 06:42:14;;;;;;;3.88;3.05;;;;;;;17.50;82.55;99859.88;4959760;28;20046;-79
2021/10/03 06:44:40;;;;;;;6.70;3.17;;;;;;;17.49;83.29;99857.44;4964551;28;20048;-79
2021/10/03 06:47:09;;;;;;;3.92;3.22;;;;;;;17.54;81.99;99860.28;4956100;28;20174;-79
2021/10/03 06:49:51;;;;;;;6.75;3.45;;;;;;;17.62;82.12;99867.97;4946889;28;20053;-79
2021/10/03 06:52:16;;;;;;;3.20;2.90;;;;;;;17.69;80.79;99858.13;4975465;28;20035;-79
2021/10/03 06:54:42;;;;;;;3.60;3.00;;;;;;;17.80;81.23;99874.34;4984591;28;20030;-78
2021/10/03 06:57:07;;;;;;;4.90;3.40;;;;;;;17.79;82.11;99867.44;4959746;28;20436;-80
2021/10/03 06:59:33;;;;;;;4.55;3.58;;;;;;;17.83;81.61;99871.28;4975153;28;20053;-79
2021/10/03 07:02:00;;;;;;;5.47;3.33;;;;;;;17.88;81.03;99864.34;4957920;28;20459;-79
2021/10/03 07:04:30;;;;;;;5.00;2.90;;;;;;;17.95;80.42;99871.44;4991441;28;20034;-79
2021/10/03 07:07:00;;;;;;;5.47;3.80;;;;;;;17.96;80.44;99873.06;4959327;28;20037;-80
2021/10/03 07:09:26;;;;;;;4.93;3.42;;;;;;;17.99;81.22;99877.94;4959092;28;20084;-81
2021/10/03 07:11:52;;;;;;;4.93;3.20;;;;;;;17.94;82.32;99880.44;4959477;28;20042;-81
2021/10/03 07:14:17;;;;;;;4.88;3.42;;;;;;;17.94;81.00;99880.44;4975157;28;20037;-80
2021/10/03 07:16:59;;;;;;;4.45;2.75;;;;;;;17.99;80.47;99891.19;4978028;28;20117;-81
2021/10/03 07:19:24;;;;;;;5.68;3.20;;;;;;;17.96;81.48;99887.13;4975533;28;20153;-83
2021/10/03 07:21:50;;;;;;;4.88;3.70;;;;;;;17.94;81.65;99883.88;4975428;28;20440;-81
2021/10/03 07:24:15;;;;;;;6.85;3.10;;;;;;;17.94;81.48;99883.09;4975892;28;20515;-83
2021/10/03 07:26:40;;;;;;;4.53;3.15;;;;;;;18.02;80.72;99893.41;4960810;28;20560;-80
2021/10/03 07:29:06;;;;;;;7.28;3.08;;;;;;;18.01;81.66;99894.47;4993777;28;20034;-80
2021/10/03 07:31:32;;;;;;;4.93;3.30;;;;;;;18.00;81.00;99892.81;4976177;28;20437;-78
2021/10/03 07:33:57;;;;;;;4.05;3.40;;;;;;;18.03;80.57;99892.41;4960429;28;20081;-79
2021/10/03 07:36:23;;;;;;;5.28;3.63;;;;;;;18.06;80.75;99886.66;4958811;28;20042;-80
2021/10/03 07:38:49;;;;;;;5.90;3.63;;;;;;;18.13;79.85;99897.22;4975005;28;20121;-79
2021/10/03 07:41:16;;;;;;;5.28;3.40;;;;;;;18.14;80.72;99904.13;4959798;28;20143;-79
2021/10/03 07:43:43;;;;;;;5.05;2.72;;;;;;;18.21;79.19;99908.38;4974466;28;20061;-78
2021/10/03 07:46:10;;;;;;;4.75;3.20;;;;;;;18.25;78.96;99914.88;4957695;28;20073;-80
2021/10/03 07:48:36;;;;;;;6.55;3.45;;;;;;;18.24;79.23;99909.78;4966259;28;20030;-79
2021/10/03 07:51:01;;;;;;;5.40;3.20;;;;;;;18.25;78.51;99906.91;4957288;28;20042;-80
2021/10/03 07:53:27;;;;;;;4.30;2.88;;;;;;;18.19;79.65;99907.78;4974676;28;20126;-81
2021/10/03 07:55:53;;;;;;;5.13;3.33;;;;;;;18.25;79.61;99914.06;4974178;28;20034;-81
2021/10/03 07:58:18;;;;;;;8.73;3.30;;;;;;;18.21;79.31;99911.00;4958285;28;20041;-79
2021/10/03 08:00:43;;;;;;;5.53;3.58;;;;;;;18.20;80.49;99911.25;4974269;28;20121;-77
2021/10/03 08:03:09;;;;;;;4.53;3.53;;;;;;;18.16;79.50;99916.19;4958449;28;20042;-81
2021/10/03 08:05:35;;;;;;;5.45;3.20;;;;;;;18.14;79.68;99912.09;4938358;28;20490;-81
2021/10/03 08:08:05;;;;;;;3.88;3.35;;;;;;;18.09;79.73;99920.72;4976925;28;20038;-79
2021/10/03 08:10:32;;;;;;;7.70;3.58;;;;;;;18.10;79.68;99914.38;4973322;23;20106;-76
2021/10/03 08:12:57;;;;;;;6.35;3.35;;;;;;;18.07;80.58;99914.81;4981363;28;20037;-77
2021/10/03 08:15:27;;;;;;;3.28;2.88;;;;;;;18.01;79.97;99913.03;4992456;28;20113;-78
2021/10/03 08:17:53;;;;;;;10.27;3.58;;;;;;;18.09;79.60;99913.56;5000099;28;20056;-77
2021/10/03 08:20:18;;;;;;;6.47;3.17;;;;;;;18.12;78.60;99919.47;4992681;28;20049;-74
2021/10/03 08:22:44;;;;;;;4.38;3.42;;;;;;;18.15;78.69;99903.94;4973374;28;20038;-78
2021/10/03 08:25:09;;;;;;;4.70;3.15;;;;;;;18.11;79.03;99916.00;4991891;28;20034;-78
2021/10/03 08:27:35;;;;;;;3.60;3.13;;;;;;;18.16;79.18;99907.38;4959835;28;20050;-77
2021/10/03 08:30:02;;;;;;;4.47;2.92;;;;;;;18.22;78.58;99910.00;4974705;28;20576;-78
2021/10/03 08:32:28;;;;;;;6.65;3.35;;;;;;;18.29;78.76;99910.75;4957977;28;20093;-78
2021/10/03 08:34:54;;;;;;;5.20;3.30;;;;;;;18.24;79.69;99907.94;4990799;28;20034;-78
2021/10/03 08:37:19;;;;;;;3.85;3.30;;;;;;;18.20;81.03;99909.41;4974495;28;20097;-79
2021/10/03 08:39:45;;;;;;;5.13;3.00;;;;;;;18.11;82.32;99905.41;4968448;28;20037;-78
2021/10/03 08:42:10;;;;;;;4.43;3.20;;;;;;;18.04;81.54;99909.94;5011279;28;20034;-78
2021/10/03 08:44:37;;;;;;;7.30;3.40;;;;;;;17.91;81.03;99902.88;5016733;28;20037;-80
2021/10/03 08:47:02;;;;;;;6.70;3.15;;;;;;;17.80;81.85;99900.88;4994112;28;20397;-78
2021/10/03 08:49:28;;;;;;;4.95;3.28;;;;;;;17.73;82.71;99914.22;4992691;28;20030;-78
2021/10/03 08:51:53;;;;;;;3.67;3.28;;;;;;;17.65;83.37;99903.84;4998160;28;20042;-77
2021/10/03 08:54:19;;;;;;;5.38;3.38;;;;;;;17.57;85.41;99909.41;4985148;28;20057;-79
2021/10/03 08:56:45;;;;;;;6.50;3.65;;;;;;;17.47;87.90;99918.63;4964277;28;20041;-78
2021/10/03 08:59:11;;;;;;;7.22;3.75;;;;;;;17.41;87.49;99906.22;4961720;28;20038;-77
2021/10/03 09:01:53;;;;;;;3.92;3.30;;;;;;;17.46;85.38;99906.41;4978817;28;20431;-79
2021/10/03 09:04:24;;;;;;;5.38;3.28;;;;;;;17.46;85.83;99910.88;4979417;28;20416;-79
2021/10/03 09:07:08;;;;;;;5.07;3.55;;;;;;;17.49;84.96;99919.22;4978894;28;20054;-80
2021/10/03 09:09:53;;;;;;;5.75;3.40;;;;;;;17.62;85.31;99915.69;4977132;28;20077;-81
2021/10/03 09:12:30;;;;;;;5.85;3.28;;;;;;;17.74;83.15;99925.63;4962426;28;20049;-79
2021/10/03 09:14:57;;;;;;;4.05;3.10;;;;;;;17.85;83.99;99920.47;4978703;28;20041;-78
2021/10/03 09:17:24;;;;;;;4.45;3.20;;;;;;;17.98;81.84;99926.72;5003921;28;20097;-80
2021/10/03 09:20:16;;;;;;;4.32;3.50;;;;;;;18.07;81.00;99928.91;4982258;28;20034;-78
2021/10/03 09:23:02;;;;;;;5.22;3.40;;;;;;;18.08;80.27;99927.03;4997781;28;20752;-79
2021/10/03 09:25:43;;;;;;;6.32;3.00;;;;;;;18.16;79.74;99933.94;4982322;28;20061;-77
2021/10/03 09:28:20;;;;;;;3.80;3.25;;;;;;;18.11;81.39;99926.63;4998247;28;20419;-79
2021/10/03 09:31:12;;;;;;;3.47;3.10;;;;;;;18.11;81.11;99929.28;4970013;28;20109;-79
2021/10/03 09:33:39;;;;;;;4.32;3.00;;;;;;;18.12;81.67;99930.91;4982010;28;20050;-78
2021/10/03 09:36:05;;;;;;;6.47;3.20;;;;;;;18.03;83.13;99921.59;4985653;28;20062;-78
2021/10/03 09:38:41;;;;;;;6.07;3.10;;;;;;;18.11;81.13;99934.59;4961301;28;20081;-78
2021/10/03 09:41:07;;;;;;;8.40;3.58;;;;;;;18.27;80.89;99933.22;4961396;28;20030;-80
2021/10/03 09:43:41;;;;;;;5.32;3.28;;;;;;;18.29;79.45;99941.81;4978169;28;20571;-77
2021/10/03 09:46:07;;;;;;;3.25;2.58;;;;;;;18.36;78.63;99931.13;4982748;28;20033;-77
2021/10/03 09:48:47;;;;;;;4.68;3.22;;;;;;;18.35;79.29;99940.94;4986925;28;20483;-77
2021/10/03 09:51:13;;;;;;;7.47;3.42;;;;;;;18.33;79.91;99945.66;4963215;28;20049;-78
2021/10/03 09:53:39;;;;;;;3.85;3.13;;;;;;;18.28;79.13;99950.78;4963194;28;20034;-79
2021/10/03 09:56:04;;;;;;;4.57;3.35;;;;;;;18.16;79.10;99942.72;4979027;28;20035;-77
2021/10/03 09:58:31;;;;;;;5.53;3.00;;;;;;;18.21;78.89;99942.06;4979183;28;20407;-77
2021/10/03 10:00:57;;;;;;;3.60;3.13;;;;;;;18.22;79.39;99952.47;4994606;28;20038;-76
2021/10/03 10:03:23;;;;;;;3.83;2.80;;;;;;;18.27;79.14;99949.97;4976238;28;20037;-77
2021/10/03 10:05:49;;;;;;;3.92;3.10;;;;;;;18.26;79.96;99942.22;4956917;28;20069;-78
2021/10/03 10:08:14;;;;;;;5.72;3.30;;;;;;;18.35;78.86;99948.09;4979100;28;20077;-79
2021/10/03 10:10:40;;;;;;;5.05;3.25;;;;;;;18.29;78.18;99955.88;4979562;28;20055;-78
2021/10/03 10:13:14;;;;;;;4.78;3.10;;;;;;;18.25;79.89;99952.03;4944657;28;20126;-78
2021/10/03 10:15:39;;;;;;;3.17;2.80;;;;;;;18.32;80.08;99953.81;4968270;28;20057;-78
2021/10/03 10:18:25;;;;;;;5.10;2.92;;;;;;;18.48;79.26;99956.75;5009889;28;20437;-79
2021/10/03 10:20:56;;;;;;;3.80;2.83;;;;;;;18.61;79.00;99962.97;4998141;28;20061;-79
2021/10/03 10:23:29;;;;;;;5.20;2.75;;;;;;;18.75;77.01;99961.00;4981754;28;20049;-78
2021/10/03 10:25:57;;;;;;;5.13;3.10;;;;;;;18.71;76.70;99942.03;4961833;28;20042;-79
2021/10/03 10:28:28;;;;;;;3.97;2.70;;;;;;;18.81;74.36;99962.81;4977281;28;20468;-79
2021/10/03 10:31:17;;;;;;;6.50;2.93;;;;;;;18.94;74.64;99960.03;4977085;28;20050;-78
2021/10/03 10:33:52;;;;;;;3.58;2.72;;;;;;;19.03;74.40;99956.03;4977793;28;20484;-77
2021/10/03 10:36:22;;;;;;;4.60;2.92;;;;;;;19.02;75.17;99950.94;4949008;28;20031;-78
2021/10/03 10:39:06;;;;;;;3.30;2.50;;;;;;;19.18;73.65;99953.00;4962273;28;20047;-78
2021/10/03 10:41:37;;;;;;;7.70;2.88;;;;;;;19.26;74.38;99959.88;5014456;28;20567;-77
2021/10/03 10:44:26;;;;;;;3.50;2.60;;;;;;;19.28;74.31;99949.03;4981203;28;20034;-79
2021/10/03 10:46:54;;;;;;;5.07;3.05;;;;;;;19.26;74.44;99952.69;4983007;28;20036;-78
2021/10/03 10:49:35;;;;;;;3.25;2.85;;;;;;;19.43;73.71;99952.09;4966118;28;20416;-78
2021/10/03 10:52:19;;;;;;;5.30;2.58;;;;;;;19.62;72.84;99948.34;4986173;28;20038;-77
2021/10/03 10:55:04;;;;;;;3.60;2.95;;;;;;;19.73;73.17;99951.34;4975483;28;20042;-79
2021/10/03 10:58:05;;;;;;;2.90;2.60;;;;;;;19.69;73.73;99942.97;4978580;28;20073;-80
2021/10/03 11:00:32;;;;;;;3.63;2.92;;;;;;;19.77;71.99;99952.50;4985026;28;20180;-78
2021/10/03 11:02:58;;;;;;;6.15;2.78;;;;;;;19.70;72.99;99957.06;4987702;28;20180;-79
2021/10/03 11:05:36;;;;;;;4.07;2.53;;;;;;;19.60;70.57;99954.94;4976578;28;20033;-80
2021/10/03 11:08:13;;;;;;;4.30;2.47;;;;;;;19.59;72.25;99953.31;4994118;28;20157;-77
2021/10/03 11:10:57;;;;;;;2.90;2.55;;;;;;;19.63;73.13;99951.84;4976158;28;20053;-77
2021/10/03 11:13:39;;;;;;;2.95;2.70;;;;;;;19.57;73.12;99958.06;4975710;28;20037;-79
2021/10/03 11:16:38;;;;;;;3.15;2.55;;;;;;;19.51;71.72;99949.13;4998611;28;20080;-77
2021/10/03 11:19:10;;;;;;;2.85;2.45;;;;;;;19.52;72.42;99948.09;4967709;28;20053;-78
2021/10/03 11:21:49;;;;;;;2.85;2.50;;;;;;;19.59;70.38;99948.00;4979489;28;20113;-78
2021/10/03 11:24:20;;;;;;;2.83;2.53;;;;;;;19.45;71.29;99950.84;4995711;28;20464;-77
2021/10/03 11:26:53;;;;;;;3.33;2.42;;;;;;;19.42;70.74;99945.97;4995282;28;20046;-78
2021/10/03 11:29:25;;;;;;;3.67;2.42;;;;;;;19.40;71.75;99949.88;4995429;28;20046;-77
2021/10/03 11:32:00;;;;;;;5.70;2.53;;;;;;;19.35;70.65;99949.75;4995520;28;20132;-77
2021/10/03 11:34:31;;;;;;;4.13;2.55;;;;;;;19.41;70.90;99954.19;4995348;28;20037;-77
2021/10/03 11:36:59;;;;;;;2.75;2.55;;;;;;;19.48;71.06;99936.28;4993297;28;20038;-78
2021/10/03 11:39:46;;;;;;;6.32;2.40;;;;;;;19.51;69.76;99937.69;4994884;28;20467;-79